メインページ
METAR-TAF:

METAR-TAF

空港 :

オークランド国際空港

オークランド, ニュージーランド

緯度: 37-01S, 経度: 174-48E, 海抜: 7m

現時点の気象観測

当レポートは33分前の05:30(UTC)に作成
南西の風 5kt
気温 15°C
湿度 77%
気圧 1006 hPa
視程10km以上

METAR: NZAA 210530Z AUTO 22005KT 9999 NCD 15/11 Q1006 NOSIG

時間: 18:03 (06:03 UTC)

予報

当レポートは49分前の05:14(UTC)に作成
予報は21日の 06時(UTC)から 22日の 06時(UTC)まで有効
西/南西の風 8kt
視程10km以上
高度2500ftの雲は散在している
高度4000ftの千切れ雲あり
弱いにわか雨
21日の 07時(UTC)から 21日の 10時(UTC)まで一時的に
視程: 6000m
高度1200ftの千切れ雲あり
21日の 10時(UTC)から 21日の 17時(UTC)まで一時的に
視程: 4000m
高度800ftの千切れ雲あり
高度2000ftの雲はほとんどない, 積乱雲.
大雨
21日の 17時(UTC)から 22日の 06時(UTC)まで一時的に
視程: 6000m
にわか雨
21日の 21時(UTC)から 21日の 23時(UTC)まで徐々に
南東の風 10kt
22日の 04時(UTC)から 22日の 06時(UTC)まで徐々に
南西の風 10kt

TAF: NZAA 210514Z 2106/2206 24008KT 9999 -SHRA SCT025 BKN040 TEMPO 2107/2110 6000 RA BKN012 TEMPO 2110/2117 4000 +RA BKN008 FEW020CB TEMPO 2117/2206 6000 SHRA BECMG 2121/2123 14010KT BECMG 2204/2206 22010KT

4,000以上の空港の気象観測と天気予報(METAR報とTAF報)

利用可能な観測所は地図上に黄色い丸と赤い丸で示す。

丸の上にカーソルを重ねると観測所名を参照できる。

次にクリックすると気象観測と天気予報を参照できる。

マップの切り替え:黒色「×」印の緑ボタンをクリックして拡大、「-」印の緑ボタンをクリックして縮小、緑色の三角印をクリックして隣りの地図に切り替え


METAR-TAF: